sensor_id;sensor_type;location;lat;lon;timestamp;P1;durP1;ratioP1;P2;durP2;ratioP2
63801;SDS011;49949;43.060;25.624;2022-11-20T00:00:55;7.97;;;2.03;;
63801;SDS011;49949;43.060;25.624;2022-11-20T00:03:20;5.53;;;1.77;;
63801;SDS011;49949;43.060;25.624;2022-11-20T00:05:46;19.00;;;1.80;;
63801;SDS011;49949;43.060;25.624;2022-11-20T00:08:12;9.85;;;1.80;;
63801;SDS011;49949;43.060;25.624;2022-11-20T00:10:38;9.65;;;2.05;;
63801;SDS011;49949;43.060;25.624;2022-11-20T00:13:05;13.13;;;1.80;;
63801;SDS011;49949;43.060;25.624;2022-11-20T00:15:32;25.38;;;2.33;;
63801;SDS011;49949;43.060;25.624;2022-11-20T00:17:58;11.65;;;2.30;;
63801;SDS011;49949;43.060;25.624;2022-11-20T00:20:24;9.30;;;1.73;;
63801;SDS011;49949;43.060;25.624;2022-11-20T00:22:50;1.95;;;0.90;;
63801;SDS011;49949;43.060;25.624;2022-11-20T00:25:16;12.60;;;2.00;;
63801;SDS011;49949;43.060;25.624;2022-11-20T00:27:42;12.05;;;2.22;;
63801;SDS011;49949;43.060;25.624;2022-11-20T00:30:08;8.52;;;1.70;;
63801;SDS011;49949;43.060;25.624;2022-11-20T00:32:34;2.30;;;0.70;;
63801;SDS011;49949;43.060;25.624;2022-11-20T00:35:00;7.07;;;1.52;;
63801;SDS011;49949;43.060;25.624;2022-11-20T00:37:25;7.93;;;1.90;;
63801;SDS011;49949;43.060;25.624;2022-11-20T00:39:51;7.53;;;1.83;;
63801;SDS011;49949;43.060;25.624;2022-11-20T00:42:17;12.10;;;1.90;;
63801;SDS011;49949;43.060;25.624;2022-11-20T00:44:42;9.55;;;2.03;;
63801;SDS011;49949;43.060;25.624;2022-11-20T00:47:08;7.43;;;1.50;;
63801;SDS011;49949;43.060;25.624;2022-11-20T00:49:34;10.93;;;1.48;;
63801;SDS011;49949;43.060;25.624;2022-11-20T00:52:00;15.38;;;2.05;;
63801;SDS011;49949;43.060;25.624;2022-11-20T00:54:25;7.03;;;1.25;;
63801;SDS011;49949;43.060;25.624;2022-11-20T00:56:54;5.75;;;1.40;;
63801;SDS011;49949;43.060;25.624;2022-11-20T00:59:20;1.60;;;0.65;;
63801;SDS011;49949;43.060;25.624;2022-11-20T01:01:45;8.43;;;1.70;;
63801;SDS011;49949;43.060;25.624;2022-11-20T01:04:11;6.50;;;1.52;;
63801;SDS011;49949;43.060;25.624;2022-11-20T01:06:37;13.13;;;1.45;;
63801;SDS011;49949;43.060;25.624;2022-11-20T01:09:05;0.43;;;0.43;;
63801;SDS011;49949;43.060;25.624;2022-11-20T01:11:38;4.82;;;1.60;;
63801;SDS011;49949;43.060;25.624;2022-11-20T01:14:07;0.82;;;0.60;;
63801;SDS011;49949;43.060;25.624;2022-11-20T01:16:36;4.80;;;1.45;;
63801;SDS011;49949;43.060;25.624;2022-11-20T01:19:05;4.82;;;1.58;;
63801;SDS011;49949;43.060;25.624;2022-11-20T01:21:33;18.92;;;1.27;;
63801;SDS011;49949;43.060;25.624;2022-11-20T01:24:01;8.73;;;2.08;;
63801;SDS011;49949;43.060;25.624;2022-11-20T01:26:30;16.08;;;1.20;;
63801;SDS011;49949;43.060;25.624;2022-11-20T01:28:57;9.85;;;1.42;;
63801;SDS011;49949;43.060;25.624;2022-11-20T01:31:25;7.45;;;1.35;;
63801;SDS011;49949;43.060;25.624;2022-11-20T01:33:57;4.38;;;0.90;;
63801;SDS011;49949;43.060;25.624;2022-11-20T01:36:25;7.25;;;1.73;;
63801;SDS011;49949;43.060;25.624;2022-11-20T01:38:55;7.55;;;1.30;;
63801;SDS011;49949;43.060;25.624;2022-11-20T01:41:32;5.20;;;0.70;;
63801;SDS011;49949;43.060;25.624;2022-11-20T01:44:19;9.30;;;1.65;;
63801;SDS011;49949;43.060;25.624;2022-11-20T01:46:57;6.30;;;1.17;;
63801;SDS011;49949;43.060;25.624;2022-11-20T01:49:40;8.13;;;1.60;;
63801;SDS011;49949;43.060;25.624;2022-11-20T01:52:19;8.60;;;1.63;;
63801;SDS011;49949;43.060;25.624;2022-11-20T01:55:09;9.00;;;1.77;;
63801;SDS011;49949;43.060;25.624;2022-11-20T01:57:35;2.83;;;0.90;;
63801;SDS011;49949;43.060;25.624;2022-11-20T02:00:12;5.15;;;1.10;;
63801;SDS011;49949;43.060;25.624;2022-11-20T02:02:41;8.80;;;1.90;;
63801;SDS011;49949;43.060;25.624;2022-11-20T02:07:52;11.00;;;1.90;;
63801;SDS011;49949;43.060;25.624;2022-11-20T02:10:19;4.63;;;1.20;;
63801;SDS011;49949;43.060;25.624;2022-11-20T02:12:46;10.85;;;1.60;;
63801;SDS011;49949;43.060;25.624;2022-11-20T02:15:30;7.78;;;1.60;;
63801;SDS011;49949;43.060;25.624;2022-11-20T02:17:58;7.93;;;1.77;;
63801;SDS011;49949;43.060;25.624;2022-11-20T02:20:24;11.77;;;1.73;;
63801;SDS011;49949;43.060;25.624;2022-11-20T02:22:57;5.57;;;1.38;;
63801;SDS011;49949;43.060;25.624;2022-11-20T02:25:35;3.60;;;1.35;;
63801;SDS011;49949;43.060;25.624;2022-11-20T02:28:02;8.05;;;1.50;;
63801;SDS011;49949;43.060;25.624;2022-11-20T02:30:28;8.13;;;1.55;;
63801;SDS011;49949;43.060;25.624;2022-11-20T02:32:54;5.85;;;1.13;;
63801;SDS011;49949;43.060;25.624;2022-11-20T02:37:48;1.98;;;0.88;;
63801;SDS011;49949;43.060;25.624;2022-11-20T02:40:17;4.40;;;1.20;;
63801;SDS011;49949;43.060;25.624;2022-11-20T02:42:43;7.32;;;1.60;;
63801;SDS011;49949;43.060;25.624;2022-11-20T02:45:08;8.07;;;1.33;;
63801;SDS011;49949;43.060;25.624;2022-11-20T02:47:34;6.65;;;1.65;;
63801;SDS011;49949;43.060;25.624;2022-11-20T02:50:00;4.32;;;1.17;;
63801;SDS011;49949;43.060;25.624;2022-11-20T02:52:27;5.88;;;2.35;;
63801;SDS011;49949;43.060;25.624;2022-11-20T02:54:53;6.07;;;1.40;;
63801;SDS011;49949;43.060;25.624;2022-11-20T02:57:18;5.85;;;1.40;;
63801;SDS011;49949;43.060;25.624;2022-11-20T02:59:44;5.47;;;1.33;;
63801;SDS011;49949;43.060;25.624;2022-11-20T03:02:10;6.28;;;1.33;;
63801;SDS011;49949;43.060;25.624;2022-11-20T03:04:35;3.30;;;0.68;;
63801;SDS011;49949;43.060;25.624;2022-11-20T03:07:01;6.65;;;1.83;;
63801;SDS011;49949;43.060;25.624;2022-11-20T03:09:27;8.20;;;1.30;;
63801;SDS011;49949;43.060;25.624;2022-11-20T03:11:53;4.03;;;1.30;;
63801;SDS011;49949;43.060;25.624;2022-11-20T03:14:19;6.28;;;1.48;;
63801;SDS011;49949;43.060;25.624;2022-11-20T03:16:44;3.83;;;0.88;;
63801;SDS011;49949;43.060;25.624;2022-11-20T03:19:11;4.78;;;1.05;;
63801;SDS011;49949;43.060;25.624;2022-11-20T03:21:37;8.43;;;1.27;;
63801;SDS011;49949;43.060;25.624;2022-11-20T03:24:03;5.75;;;1.40;;
63801;SDS011;49949;43.060;25.624;2022-11-20T03:26:28;8.80;;;1.40;;
63801;SDS011;49949;43.060;25.624;2022-11-20T03:28:55;10.38;;;1.50;;
63801;SDS011;49949;43.060;25.624;2022-11-20T03:31:23;8.68;;;1.55;;
63801;SDS011;49949;43.060;25.624;2022-11-20T03:33:51;11.43;;;2.45;;
63801;SDS011;49949;43.060;25.624;2022-11-20T03:36:17;6.57;;;1.65;;
63801;SDS011;49949;43.060;25.624;2022-11-20T03:38:43;5.78;;;0.82;;
63801;SDS011;49949;43.060;25.624;2022-11-20T03:41:10;6.97;;;1.33;;
63801;SDS011;49949;43.060;25.624;2022-11-20T03:44:17;7.13;;;1.50;;
63801;SDS011;49949;43.060;25.624;2022-11-20T03:46:36;9.35;;;1.92;;
63801;SDS011;49949;43.060;25.624;2022-11-20T03:49:02;2.25;;;1.13;;
63801;SDS011;49949;43.060;25.624;2022-11-20T03:51:29;7.32;;;1.80;;
63801;SDS011;49949;43.060;25.624;2022-11-20T03:53:58;5.68;;;1.10;;
63801;SDS011;49949;43.060;25.624;2022-11-20T03:56:26;7.18;;;1.33;;
63801;SDS011;49949;43.060;25.624;2022-11-20T03:58:54;14.13;;;2.10;;
63801;SDS011;49949;43.060;25.624;2022-11-20T04:01:20;5.22;;;1.88;;
63801;SDS011;49949;43.060;25.624;2022-11-20T04:03:48;8.85;;;1.63;;
63801;SDS011;49949;43.060;25.624;2022-11-20T04:06:20;5.20;;;1.33;;
63801;SDS011;49949;43.060;25.624;2022-11-20T04:08:47;2.95;;;0.93;;
63801;SDS011;49949;43.060;25.624;2022-11-20T04:11:14;7.10;;;1.30;;
63801;SDS011;49949;43.060;25.624;2022-11-20T04:13:42;9.35;;;1.75;;
63801;SDS011;49949;43.060;25.624;2022-11-20T04:16:12;7.22;;;1.27;;
63801;SDS011;49949;43.060;25.624;2022-11-20T04:18:38;9.90;;;1.17;;
63801;SDS011;49949;43.060;25.624;2022-11-20T04:21:03;2.78;;;0.95;;
63801;SDS011;49949;43.060;25.624;2022-11-20T04:23:30;8.40;;;3.05;;
63801;SDS011;49949;43.060;25.624;2022-11-20T04:26:03;8.95;;;1.80;;
63801;SDS011;49949;43.060;25.624;2022-11-20T04:28:30;7.97;;;1.45;;
63801;SDS011;49949;43.060;25.624;2022-11-20T04:31:05;4.40;;;1.35;;
63801;SDS011;49949;43.060;25.624;2022-11-20T04:33:33;1.77;;;0.40;;
63801;SDS011;49949;43.060;25.624;2022-11-20T04:36:00;4.45;;;1.35;;
63801;SDS011;49949;43.060;25.624;2022-11-20T04:38:31;9.85;;;1.25;;
63801;SDS011;49949;43.060;25.624;2022-11-20T04:41:00;2.97;;;0.80;;
63801;SDS011;49949;43.060;25.624;2022-11-20T04:43:27;9.77;;;1.90;;
63801;SDS011;49949;43.060;25.624;2022-11-20T04:45:54;5.70;;;1.30;;
63801;SDS011;49949;43.060;25.624;2022-11-20T04:48:20;7.75;;;1.17;;
63801;SDS011;49949;43.060;25.624;2022-11-20T04:50:46;3.88;;;0.50;;
63801;SDS011;49949;43.060;25.624;2022-11-20T04:53:12;5.45;;;1.30;;
63801;SDS011;49949;43.060;25.624;2022-11-20T04:55:38;4.43;;;1.05;;
63801;SDS011;49949;43.060;25.624;2022-11-20T04:58:04;4.72;;;1.13;;
63801;SDS011;49949;43.060;25.624;2022-11-20T05:00:30;2.35;;;0.85;;
63801;SDS011;49949;43.060;25.624;2022-11-20T05:02:56;7.82;;;1.17;;
63801;SDS011;49949;43.060;25.624;2022-11-20T05:05:21;7.25;;;1.30;;
63801;SDS011;49949;43.060;25.624;2022-11-20T05:07:47;8.82;;;1.23;;
63801;SDS011;49949;43.060;25.624;2022-11-20T05:10:13;4.63;;;1.23;;
63801;SDS011;49949;43.060;25.624;2022-11-20T05:12:38;9.43;;;1.30;;
63801;SDS011;49949;43.060;25.624;2022-11-20T05:15:04;7.03;;;1.77;;
63801;SDS011;49949;43.060;25.624;2022-11-20T05:17:30;14.30;;;1.50;;
63801;SDS011;49949;43.060;25.624;2022-11-20T05:19:56;6.28;;;1.63;;
63801;SDS011;49949;43.060;25.624;2022-11-20T05:22:21;4.82;;;1.40;;
63801;SDS011;49949;43.060;25.624;2022-11-20T05:24:47;4.55;;;1.23;;
63801;SDS011;49949;43.060;25.624;2022-11-20T05:27:13;7.93;;;1.88;;
63801;SDS011;49949;43.060;25.624;2022-11-20T05:29:38;3.55;;;1.35;;
63801;SDS011;49949;43.060;25.624;2022-11-20T05:32:04;6.32;;;1.52;;
63801;SDS011;49949;43.060;25.624;2022-11-20T05:34:32;5.53;;;1.30;;
63801;SDS011;49949;43.060;25.624;2022-11-20T05:36:58;4.22;;;1.42;;
63801;SDS011;49949;43.060;25.624;2022-11-20T05:39:23;8.07;;;1.80;;
63801;SDS011;49949;43.060;25.624;2022-11-20T05:41:49;3.20;;;1.05;;
63801;SDS011;49949;43.060;25.624;2022-11-20T05:44:34;5.60;;;1.50;;
63801;SDS011;49949;43.060;25.624;2022-11-20T05:47:00;6.90;;;1.17;;
63801;SDS011;49949;43.060;25.624;2022-11-20T05:49:26;9.63;;;1.27;;
63801;SDS011;49949;43.060;25.624;2022-11-20T05:51:51;13.90;;;1.20;;
63801;SDS011;49949;43.060;25.624;2022-11-20T05:54:17;3.92;;;1.25;;
63801;SDS011;49949;43.060;25.624;2022-11-20T05:56:43;4.97;;;1.50;;
63801;SDS011;49949;43.060;25.624;2022-11-20T05:59:08;9.93;;;1.95;;
63801;SDS011;49949;43.060;25.624;2022-11-20T06:01:34;5.53;;;1.20;;
63801;SDS011;49949;43.060;25.624;2022-11-20T06:04:01;7.03;;;1.20;;
63801;SDS011;49949;43.060;25.624;2022-11-20T06:06:27;5.07;;;0.98;;
63801;SDS011;49949;43.060;25.624;2022-11-20T06:08:52;8.18;;;1.48;;
63801;SDS011;49949;43.060;25.624;2022-11-20T06:11:19;7.70;;;1.45;;
63801;SDS011;49949;43.060;25.624;2022-11-20T06:13:45;4.50;;;2.00;;
63801;SDS011;49949;43.060;25.624;2022-11-20T06:16:12;15.07;;;4.57;;
63801;SDS011;49949;43.060;25.624;2022-11-20T06:18:40;15.48;;;7.07;;
63801;SDS011;49949;43.060;25.624;2022-11-20T06:21:07;13.07;;;5.80;;
63801;SDS011;49949;43.060;25.624;2022-11-20T06:23:34;16.00;;;8.50;;
63801;SDS011;49949;43.060;25.624;2022-11-20T06:26:02;20.90;;;8.80;;
63801;SDS011;49949;43.060;25.624;2022-11-20T06:28:31;14.10;;;6.32;;
63801;SDS011;49949;43.060;25.624;2022-11-20T06:30:57;7.72;;;5.30;;
63801;SDS011;49949;43.060;25.624;2022-11-20T06:33:23;13.93;;;4.78;;
63801;SDS011;49949;43.060;25.624;2022-11-20T06:35:49;9.77;;;5.00;;
63801;SDS011;49949;43.060;25.624;2022-11-20T06:38:16;29.52;;;17.23;;
63801;SDS011;49949;43.060;25.624;2022-11-20T06:40:41;12.85;;;6.43;;
63801;SDS011;49949;43.060;25.624;2022-11-20T06:43:08;11.00;;;4.80;;
63801;SDS011;49949;43.060;25.624;2022-11-20T06:45:36;21.83;;;8.40;;
63801;SDS011;49949;43.060;25.624;2022-11-20T06:48:02;19.48;;;10.27;;
63801;SDS011;49949;43.060;25.624;2022-11-20T06:50:28;13.38;;;6.65;;
63801;SDS011;49949;43.060;25.624;2022-11-20T06:52:54;13.70;;;7.28;;
63801;SDS011;49949;43.060;25.624;2022-11-20T06:55:20;11.55;;;6.05;;
63801;SDS011;49949;43.060;25.624;2022-11-20T06:57:45;15.48;;;10.65;;
63801;SDS011;49949;43.060;25.624;2022-11-20T07:00:11;12.27;;;7.88;;
63801;SDS011;49949;43.060;25.624;2022-11-20T07:02:37;22.45;;;13.80;;
63801;SDS011;49949;43.060;25.624;2022-11-20T07:05:03;21.65;;;14.05;;
63801;SDS011;49949;43.060;25.624;2022-11-20T07:07:29;43.90;;;20.33;;
63801;SDS011;49949;43.060;25.624;2022-11-20T07:09:54;32.92;;;19.48;;
63801;SDS011;49949;43.060;25.624;2022-11-20T07:12:20;54.85;;;30.95;;
63801;SDS011;49949;43.060;25.624;2022-11-20T07:14:45;67.30;;;36.78;;
63801;SDS011;49949;43.060;25.624;2022-11-20T07:17:11;80.68;;;32.28;;
63801;SDS011;49949;43.060;25.624;2022-11-20T07:19:38;69.63;;;38.17;;
63801;SDS011;49949;43.060;25.624;2022-11-20T07:22:03;48.20;;;27.08;;
63801;SDS011;49949;43.060;25.624;2022-11-20T07:24:29;24.52;;;13.65;;
63801;SDS011;49949;43.060;25.624;2022-11-20T07:26:55;19.52;;;10.60;;
63801;SDS011;49949;43.060;25.624;2022-11-20T07:29:20;22.83;;;12.32;;
63801;SDS011;49949;43.060;25.624;2022-11-20T07:31:46;22.65;;;12.13;;
63801;SDS011;49949;43.060;25.624;2022-11-20T07:34:12;24.10;;;12.25;;
63801;SDS011;49949;43.060;25.624;2022-11-20T07:36:37;26.42;;;11.70;;
63801;SDS011;49949;43.060;25.624;2022-11-20T07:39:04;27.80;;;13.05;;
63801;SDS011;49949;43.060;25.624;2022-11-20T07:41:30;26.52;;;13.07;;
63801;SDS011;49949;43.060;25.624;2022-11-20T07:43:56;25.42;;;13.52;;
63801;SDS011;49949;43.060;25.624;2022-11-20T07:46:21;31.08;;;13.80;;
63801;SDS011;49949;43.060;25.624;2022-11-20T07:48:47;32.05;;;14.65;;
63801;SDS011;49949;43.060;25.624;2022-11-20T07:51:13;23.65;;;11.27;;
63801;SDS011;49949;43.060;25.624;2022-11-20T07:53:38;26.55;;;12.82;;
63801;SDS011;49949;43.060;25.624;2022-11-20T07:56:04;31.25;;;13.55;;
63801;SDS011;49949;43.060;25.624;2022-11-20T07:58:30;29.45;;;13.63;;
63801;SDS011;49949;43.060;25.624;2022-11-20T08:00:58;32.50;;;12.88;;
63801;SDS011;49949;43.060;25.624;2022-11-20T08:03:28;31.90;;;13.73;;
63801;SDS011;49949;43.060;25.624;2022-11-20T08:05:53;25.60;;;12.52;;
63801;SDS011;49949;43.060;25.624;2022-11-20T08:08:19;29.75;;;13.05;;
63801;SDS011;49949;43.060;25.624;2022-11-20T08:10:46;29.20;;;13.85;;
63801;SDS011;49949;43.060;25.624;2022-11-20T08:13:12;28.83;;;13.68;;
63801;SDS011;49949;43.060;25.624;2022-11-20T08:15:56;37.20;;;12.98;;
63801;SDS011;49949;43.060;25.624;2022-11-20T08:18:22;29.70;;;13.18;;
63801;SDS011;49949;43.060;25.624;2022-11-20T08:20:47;28.50;;;13.55;;
63801;SDS011;49949;43.060;25.624;2022-11-20T08:23:13;25.58;;;13.30;;
63801;SDS011;49949;43.060;25.624;2022-11-20T08:25:39;23.40;;;12.48;;
63801;SDS011;49949;43.060;25.624;2022-11-20T08:28:06;22.60;;;11.93;;
63801;SDS011;49949;43.060;25.624;2022-11-20T08:30:33;24.35;;;13.07;;
63801;SDS011;49949;43.060;25.624;2022-11-20T08:33:03;27.63;;;13.20;;
63801;SDS011;49949;43.060;25.624;2022-11-20T08:35:36;25.00;;;13.75;;
63801;SDS011;49949;43.060;25.624;2022-11-20T08:38:03;25.33;;;12.60;;
63801;SDS011;49949;43.060;25.624;2022-11-20T08:40:30;21.70;;;12.50;;
63801;SDS011;49949;43.060;25.624;2022-11-20T08:42:56;27.15;;;13.63;;
63801;SDS011;49949;43.060;25.624;2022-11-20T08:45:22;25.60;;;12.80;;
63801;SDS011;49949;43.060;25.624;2022-11-20T08:47:48;27.25;;;14.05;;
63801;SDS011;49949;43.060;25.624;2022-11-20T08:50:14;30.30;;;12.65;;
63801;SDS011;49949;43.060;25.624;2022-11-20T08:52:41;24.90;;;13.23;;
63801;SDS011;49949;43.060;25.624;2022-11-20T08:55:07;31.83;;;12.82;;
63801;SDS011;49949;43.060;25.624;2022-11-20T08:57:34;27.08;;;13.77;;
63801;SDS011;49949;43.060;25.624;2022-11-20T09:00:00;35.22;;;14.20;;
63801;SDS011;49949;43.060;25.624;2022-11-20T09:02:28;28.05;;;13.38;;
63801;SDS011;49949;43.060;25.624;2022-11-20T09:04:54;32.17;;;14.18;;
63801;SDS011;49949;43.060;25.624;2022-11-20T09:07:19;31.58;;;13.35;;
63801;SDS011;49949;43.060;25.624;2022-11-20T09:09:45;28.00;;;13.43;;
63801;SDS011;49949;43.060;25.624;2022-11-20T09:12:11;34.28;;;14.77;;
63801;SDS011;49949;43.060;25.624;2022-11-20T09:14:37;34.38;;;14.43;;
63801;SDS011;49949;43.060;25.624;2022-11-20T09:17:02;31.40;;;14.40;;
63801;SDS011;49949;43.060;25.624;2022-11-20T09:19:28;29.60;;;14.88;;
63801;SDS011;49949;43.060;25.624;2022-11-20T09:21:54;30.48;;;14.55;;
63801;SDS011;49949;43.060;25.624;2022-11-20T09:24:19;28.75;;;13.55;;
63801;SDS011;49949;43.060;25.624;2022-11-20T09:26:48;28.30;;;14.23;;
63801;SDS011;49949;43.060;25.624;2022-11-20T09:29:13;29.45;;;13.90;;
63801;SDS011;49949;43.060;25.624;2022-11-20T09:31:39;33.65;;;14.98;;
63801;SDS011;49949;43.060;25.624;2022-11-20T09:34:05;30.33;;;13.52;;
63801;SDS011;49949;43.060;25.624;2022-11-20T09:36:30;26.25;;;13.43;;
63801;SDS011;49949;43.060;25.624;2022-11-20T09:38:56;31.88;;;13.13;;
63801;SDS011;49949;43.060;25.624;2022-11-20T09:55:51;27.90;;;13.38;;
63801;SDS011;49949;43.060;25.624;2022-11-20T10:03:35;24.08;;;11.82;;
63801;SDS011;49949;43.060;25.624;2022-11-20T10:06:03;24.52;;;12.23;;
63801;SDS011;49949;43.060;25.624;2022-11-20T10:08:41;29.88;;;12.25;;
63801;SDS011;49949;43.060;25.624;2022-11-20T10:29:13;29.75;;;12.60;;
63801;SDS011;49949;43.060;25.624;2022-11-20T10:31:45;25.48;;;12.35;;
63801;SDS011;49949;43.060;25.624;2022-11-20T10:36:49;27.00;;;13.55;;
63801;SDS011;49949;43.060;25.624;2022-11-20T10:42:00;29.38;;;14.55;;
63801;SDS011;49949;43.060;25.624;2022-11-20T10:44:27;29.95;;;16.27;;
63801;SDS011;49949;43.060;25.624;2022-11-20T10:47:15;27.52;;;13.55;;
63801;SDS011;49949;43.060;25.624;2022-11-20T10:49:46;29.88;;;14.73;;
63801;SDS011;49949;43.060;25.624;2022-11-20T10:55:26;29.45;;;14.50;;
63801;SDS011;49949;43.060;25.624;2022-11-20T10:58:14;25.80;;;12.60;;
63801;SDS011;49949;43.060;25.624;2022-11-20T11:00:45;26.70;;;13.27;;
63801;SDS011;49949;43.060;25.624;2022-11-20T11:03:22;26.60;;;13.00;;
63801;SDS011;49949;43.060;25.624;2022-11-20T11:05:54;30.08;;;13.15;;
63801;SDS011;49949;43.060;25.624;2022-11-20T11:08:28;29.23;;;14.05;;
63801;SDS011;49949;43.060;25.624;2022-11-20T11:11:00;27.23;;;11.77;;
63801;SDS011;49949;43.060;25.624;2022-11-20T11:13:45;28.63;;;13.82;;
63801;SDS011;49949;43.060;25.624;2022-11-20T11:16:26;24.65;;;13.02;;
63801;SDS011;49949;43.060;25.624;2022-11-20T11:19:02;26.50;;;13.45;;
63801;SDS011;49949;43.060;25.624;2022-11-20T11:21:36;26.17;;;14.43;;
63801;SDS011;49949;43.060;25.624;2022-11-20T11:24:14;30.85;;;13.95;;
63801;SDS011;49949;43.060;25.624;2022-11-20T11:29:24;21.77;;;11.65;;
63801;SDS011;49949;43.060;25.624;2022-11-20T11:35:01;29.95;;;12.18;;
63801;SDS011;49949;43.060;25.624;2022-11-20T11:37:32;29.35;;;13.30;;
63801;SDS011;49949;43.060;25.624;2022-11-20T11:40:00;25.88;;;12.60;;
63801;SDS011;49949;43.060;25.624;2022-11-20T11:42:28;27.08;;;12.85;;
63801;SDS011;49949;43.060;25.624;2022-11-20T11:44:55;26.55;;;12.57;;
63801;SDS011;49949;43.060;25.624;2022-11-20T11:47:36;26.83;;;12.88;;
63801;SDS011;49949;43.060;25.624;2022-11-20T11:55:43;22.73;;;12.43;;
63801;SDS011;49949;43.060;25.624;2022-11-20T11:58:44;27.88;;;12.30;;
63801;SDS011;49949;43.060;25.624;2022-11-20T12:04:00;25.73;;;11.98;;
63801;SDS011;49949;43.060;25.624;2022-11-20T12:06:35;22.02;;;12.63;;
63801;SDS011;49949;43.060;25.624;2022-11-20T12:09:04;26.25;;;13.73;;
63801;SDS011;49949;43.060;25.624;2022-11-20T12:11:43;24.23;;;11.38;;
63801;SDS011;49949;43.060;25.624;2022-11-20T12:17:01;21.60;;;11.38;;
63801;SDS011;49949;43.060;25.624;2022-11-20T12:19:29;23.35;;;11.63;;
63801;SDS011;49949;43.060;25.624;2022-11-20T12:30:25;24.73;;;11.90;;
63801;SDS011;49949;43.060;25.624;2022-11-20T12:33:07;20.83;;;12.10;;
63801;SDS011;49949;43.060;25.624;2022-11-20T12:41:46;24.73;;;12.40;;
63801;SDS011;49949;43.060;25.624;2022-11-20T12:59:03;29.63;;;14.02;;
63801;SDS011;49949;43.060;25.624;2022-11-20T13:01:45;32.13;;;15.55;;
63801;SDS011;49949;43.060;25.624;2022-11-20T13:07:29;33.42;;;14.95;;
63801;SDS011;49949;43.060;25.624;2022-11-20T13:09:56;32.47;;;15.85;;
63801;SDS011;49949;43.060;25.624;2022-11-20T13:17:38;29.75;;;16.15;;
63801;SDS011;49949;43.060;25.624;2022-11-20T13:20:13;33.92;;;15.25;;
63801;SDS011;49949;43.060;25.624;2022-11-20T13:22:43;33.80;;;15.88;;
63801;SDS011;49949;43.060;25.624;2022-11-20T13:25:09;30.90;;;15.57;;
63801;SDS011;49949;43.060;25.624;2022-11-20T13:27:35;33.67;;;15.55;;
63801;SDS011;49949;43.060;25.624;2022-11-20T13:30:13;32.55;;;15.93;;
63801;SDS011;49949;43.060;25.624;2022-11-20T13:32:57;35.55;;;16.90;;
63801;SDS011;49949;43.060;25.624;2022-11-20T13:35:32;35.60;;;17.08;;
63801;SDS011;49949;43.060;25.624;2022-11-20T13:38:01;33.58;;;16.95;;
63801;SDS011;49949;43.060;25.624;2022-11-20T13:40:30;32.67;;;15.30;;
63801;SDS011;49949;43.060;25.624;2022-11-20T13:43:00;33.53;;;15.98;;
63801;SDS011;49949;43.060;25.624;2022-11-20T13:45:32;35.38;;;16.40;;
63801;SDS011;49949;43.060;25.624;2022-11-20T13:48:02;34.55;;;17.15;;
63801;SDS011;49949;43.060;25.624;2022-11-20T14:01:46;33.88;;;16.55;;
63801;SDS011;49949;43.060;25.624;2022-11-20T14:04:15;29.08;;;15.20;;
63801;SDS011;49949;43.060;25.624;2022-11-20T14:09:24;41.45;;;19.02;;
63801;SDS011;49949;43.060;25.624;2022-11-20T14:11:51;36.25;;;18.02;;
63801;SDS011;49949;43.060;25.624;2022-11-20T14:14:21;36.22;;;18.38;;
63801;SDS011;49949;43.060;25.624;2022-11-20T14:16:49;34.77;;;17.80;;
63801;SDS011;49949;43.060;25.624;2022-11-20T14:21:46;36.97;;;17.23;;
63801;SDS011;49949;43.060;25.624;2022-11-20T14:24:20;33.00;;;17.73;;
63801;SDS011;49949;43.060;25.624;2022-11-20T14:26:49;39.58;;;19.02;;
63801;SDS011;49949;43.060;25.624;2022-11-20T14:29:21;39.53;;;18.20;;
63801;SDS011;49949;43.060;25.624;2022-11-20T14:31:52;45.38;;;19.98;;
63801;SDS011;49949;43.060;25.624;2022-11-20T14:34:23;50.90;;;22.67;;
63801;SDS011;49949;43.060;25.624;2022-11-20T14:36:55;50.53;;;22.40;;
63801;SDS011;49949;43.060;25.624;2022-11-20T14:39:34;46.28;;;23.33;;
63801;SDS011;49949;43.060;25.624;2022-11-20T14:42:01;42.67;;;21.40;;
63801;SDS011;49949;43.060;25.624;2022-11-20T14:44:40;40.78;;;19.73;;
63801;SDS011;49949;43.060;25.624;2022-11-20T14:47:08;40.78;;;18.88;;
63801;SDS011;49949;43.060;25.624;2022-11-20T14:49:37;49.53;;;24.45;;
63801;SDS011;49949;43.060;25.624;2022-11-20T14:52:13;51.45;;;24.25;;
63801;SDS011;49949;43.060;25.624;2022-11-20T14:54:48;37.35;;;16.98;;
63801;SDS011;49949;43.060;25.624;2022-11-20T15:02:38;30.45;;;16.58;;
63801;SDS011;49949;43.060;25.624;2022-11-20T15:05:08;17.92;;;9.20;;
63801;SDS011;49949;43.060;25.624;2022-11-20T15:07:35;17.30;;;8.20;;
63801;SDS011;49949;43.060;25.624;2022-11-20T15:10:03;0.30;;;0.30;;
63801;SDS011;49949;43.060;25.624;2022-11-20T15:15:03;0.00;;;0.00;;
63801;SDS011;49949;43.060;25.624;2022-11-20T15:17:30;0.03;;;0.03;;
63801;SDS011;49949;43.060;25.624;2022-11-20T15:19:57;0.63;;;0.52;;
63801;SDS011;49949;43.060;25.624;2022-11-20T15:22:35;0.45;;;0.45;;
63801;SDS011;49949;43.060;25.624;2022-11-20T15:25:00;0.10;;;0.10;;
63801;SDS011;49949;43.060;25.624;2022-11-20T15:27:26;0.00;;;0.00;;
63801;SDS011;49949;43.060;25.624;2022-11-20T15:29:52;0.00;;;0.00;;
63801;SDS011;49949;43.060;25.624;2022-11-20T15:32:18;1.95;;;0.47;;
63801;SDS011;49949;43.060;25.624;2022-11-20T15:34:43;0.20;;;0.20;;
63801;SDS011;49949;43.060;25.624;2022-11-20T15:37:09;0.40;;;0.40;;
63801;SDS011;49949;43.060;25.624;2022-11-20T15:39:35;0.35;;;0.35;;
63801;SDS011;49949;43.060;25.624;2022-11-20T15:42:00;0.10;;;0.10;;
63801;SDS011;49949;43.060;25.624;2022-11-20T15:44:26;0.13;;;0.13;;
63801;SDS011;49949;43.060;25.624;2022-11-20T15:46:52;0.80;;;0.80;;
63801;SDS011;49949;43.060;25.624;2022-11-20T15:49:18;0.10;;;0.10;;
63801;SDS011;49949;43.060;25.624;2022-11-20T15:51:48;0.05;;;0.05;;
63801;SDS011;49949;43.060;25.624;2022-11-20T15:54:16;0.08;;;0.08;;
63801;SDS011;49949;43.060;25.624;2022-11-20T15:56:45;0.00;;;0.00;;
63801;SDS011;49949;43.060;25.624;2022-11-20T15:59:11;0.00;;;0.00;;
63801;SDS011;49949;43.060;25.624;2022-11-20T16:01:39;0.10;;;0.10;;
63801;SDS011;49949;43.060;25.624;2022-11-20T16:04:09;2.65;;;1.05;;
63801;SDS011;49949;43.060;25.624;2022-11-20T16:06:39;0.40;;;0.40;;
63801;SDS011;49949;43.060;25.624;2022-11-20T16:09:04;0.43;;;0.25;;
63801;SDS011;49949;43.060;25.624;2022-11-20T16:11:30;0.38;;;0.38;;
63801;SDS011;49949;43.060;25.624;2022-11-20T16:13:56;0.10;;;0.10;;
63801;SDS011;49949;43.060;25.624;2022-11-20T16:16:40;0.00;;;0.00;;
63801;SDS011;49949;43.060;25.624;2022-11-20T16:19:11;3.05;;;0.85;;
63801;SDS011;49949;43.060;25.624;2022-11-20T16:21:38;3.08;;;0.68;;
63801;SDS011;49949;43.060;25.624;2022-11-20T16:24:06;2.15;;;0.95;;
63801;SDS011;49949;43.060;25.624;2022-11-20T16:26:34;1.38;;;0.52;;
63801;SDS011;49949;43.060;25.624;2022-11-20T16:29:00;0.10;;;0.10;;
63801;SDS011;49949;43.060;25.624;2022-11-20T16:31:27;0.47;;;0.47;;
63801;SDS011;49949;43.060;25.624;2022-11-20T16:33:58;0.00;;;0.00;;
63801;SDS011;49949;43.060;25.624;2022-11-20T16:36:26;0.00;;;0.00;;
63801;SDS011;49949;43.060;25.624;2022-11-20T16:38:53;0.00;;;0.00;;
63801;SDS011;49949;43.060;25.624;2022-11-20T16:41:20;0.10;;;0.10;;